sensor_id;sensor_type;location;lat;lon;timestamp;temperature;humidity
16517;DHT22;8371;52.272;9.746;2022-09-12T00:01:32;13.60;70.40
16517;DHT22;8371;52.272;9.746;2022-09-12T00:03:59;13.60;70.30
16517;DHT22;8371;52.272;9.746;2022-09-12T00:06:28;13.60;70.20
16517;DHT22;8371;52.272;9.746;2022-09-12T00:08:57;13.60;70.20
16517;DHT22;8371;52.272;9.746;2022-09-12T00:11:24;13.50;70.10
16517;DHT22;8371;52.272;9.746;2022-09-12T00:13:50;13.50;70.00
16517;DHT22;8371;52.272;9.746;2022-09-12T00:16:19;13.40;70.00
16517;DHT22;8371;52.272;9.746;2022-09-12T00:18:46;13.40;70.00
16517;DHT22;8371;52.272;9.746;2022-09-12T00:21:12;13.40;70.20
16517;DHT22;8371;52.272;9.746;2022-09-12T00:23:38;13.30;70.40
16517;DHT22;8371;52.272;9.746;2022-09-12T00:26:05;13.30;70.70
16517;DHT22;8371;52.272;9.746;2022-09-12T00:28:33;13.30;70.90
16517;DHT22;8371;52.272;9.746;2022-09-12T00:31:10;13.30;71.10
16517;DHT22;8371;52.272;9.746;2022-09-12T00:33:35;13.30;71.10
16517;DHT22;8371;52.272;9.746;2022-09-12T00:36:03;13.30;71.10
16517;DHT22;8371;52.272;9.746;2022-09-12T00:38:29;13.30;71.10
16517;DHT22;8371;52.272;9.746;2022-09-12T00:40:55;13.30;71.10
16517;DHT22;8371;52.272;9.746;2022-09-12T00:43:36;13.30;71.20
16517;DHT22;8371;52.272;9.746;2022-09-12T00:48:43;13.20;71.40
16517;DHT22;8371;52.272;9.746;2022-09-12T00:51:11;13.30;71.60
16517;DHT22;8371;52.272;9.746;2022-09-12T00:53:38;13.20;72.00
16517;DHT22;8371;52.272;9.746;2022-09-12T00:56:05;13.20;71.70
16517;DHT22;8371;52.272;9.746;2022-09-12T00:58:36;13.20;71.40
16517;DHT22;8371;52.272;9.746;2022-09-12T01:01:01;13.20;71.40
16517;DHT22;8371;52.272;9.746;2022-09-12T01:03:27;13.20;71.20
16517;DHT22;8371;52.272;9.746;2022-09-12T01:06:08;13.10;71.10
16517;DHT22;8371;52.272;9.746;2022-09-12T01:08:32;13.10;71.00
16517;DHT22;8371;52.272;9.746;2022-09-12T01:10:58;13.00;71.10
16517;DHT22;8371;52.272;9.746;2022-09-12T01:13:24;13.00;71.40
16517;DHT22;8371;52.272;9.746;2022-09-12T01:15:50;13.00;71.70
16517;DHT22;8371;52.272;9.746;2022-09-12T01:18:20;13.00;72.00
16517;DHT22;8371;52.272;9.746;2022-09-12T01:20:59;13.00;72.00
16517;DHT22;8371;52.272;9.746;2022-09-12T01:32:18;12.90;71.30
16517;DHT22;8371;52.272;9.746;2022-09-12T01:34:55;12.80;71.40
16517;DHT22;8371;52.272;9.746;2022-09-12T01:37:27;12.80;71.50
16517;DHT22;8371;52.272;9.746;2022-09-12T01:40:15;12.70;71.40
16517;DHT22;8371;52.272;9.746;2022-09-12T01:42:57;12.70;71.40
16517;DHT22;8371;52.272;9.746;2022-09-12T01:45:26;12.60;71.30
16517;DHT22;8371;52.272;9.746;2022-09-12T01:48:37;12.60;71.20
16517;DHT22;8371;52.272;9.746;2022-09-12T01:50:27;12.50;71.10
16517;DHT22;8371;52.272;9.746;2022-09-12T01:53:00;12.50;71.20
16517;DHT22;8371;52.272;9.746;2022-09-12T01:55:39;12.40;71.00
16517;DHT22;8371;52.272;9.746;2022-09-12T01:58:05;12.40;71.10
16517;DHT22;8371;52.272;9.746;2022-09-12T02:00:34;12.30;71.10
16517;DHT22;8371;52.272;9.746;2022-09-12T02:03:13;12.30;71.30
16517;DHT22;8371;52.272;9.746;2022-09-12T02:05:49;12.30;71.40
16517;DHT22;8371;52.272;9.746;2022-09-12T02:08:25;12.20;71.40
16517;DHT22;8371;52.272;9.746;2022-09-12T02:10:56;12.20;71.50
16517;DHT22;8371;52.272;9.746;2022-09-12T02:13:38;12.20;71.80
16517;DHT22;8371;52.272;9.746;2022-09-12T02:16:16;12.20;72.00
16517;DHT22;8371;52.272;9.746;2022-09-12T02:18:49;12.20;72.00
16517;DHT22;8371;52.272;9.746;2022-09-12T02:21:15;12.10;71.90
16517;DHT22;8371;52.272;9.746;2022-09-12T02:23:45;12.10;71.30
16517;DHT22;8371;52.272;9.746;2022-09-12T02:26:20;12.10;72.00
16517;DHT22;8371;52.272;9.746;2022-09-12T02:28:47;12.10;72.10
16517;DHT22;8371;52.272;9.746;2022-09-12T02:31:33;12.10;72.40
16517;DHT22;8371;52.272;9.746;2022-09-12T02:39:19;12.10;72.80
16517;DHT22;8371;52.272;9.746;2022-09-12T02:41:47;12.10;72.80
16517;DHT22;8371;52.272;9.746;2022-09-12T02:44:14;12.10;73.10
16517;DHT22;8371;52.272;9.746;2022-09-12T02:46:43;12.20;73.30
16517;DHT22;8371;52.272;9.746;2022-09-12T02:49:09;12.20;73.60
16517;DHT22;8371;52.272;9.746;2022-09-12T02:51:36;12.30;73.80
16517;DHT22;8371;52.272;9.746;2022-09-12T02:54:02;12.30;74.00
16517;DHT22;8371;52.272;9.746;2022-09-12T02:56:29;12.30;74.10
16517;DHT22;8371;52.272;9.746;2022-09-12T02:58:59;12.40;73.80
16517;DHT22;8371;52.272;9.746;2022-09-12T03:09:43;12.40;72.90
16517;DHT22;8371;52.272;9.746;2022-09-12T03:12:19;12.40;73.00
16517;DHT22;8371;52.272;9.746;2022-09-12T03:14:58;12.30;73.20
16517;DHT22;8371;52.272;9.746;2022-09-12T03:20:14;12.30;73.80
16517;DHT22;8371;52.272;9.746;2022-09-12T03:22:47;12.30;74.10
16517;DHT22;8371;52.272;9.746;2022-09-12T03:25:22;12.40;74.40
16517;DHT22;8371;52.272;9.746;2022-09-12T03:27:57;12.40;74.50
16517;DHT22;8371;52.272;9.746;2022-09-12T03:30:24;12.50;74.70
16517;DHT22;8371;52.272;9.746;2022-09-12T03:32:52;12.50;74.80
16517;DHT22;8371;52.272;9.746;2022-09-12T03:35:22;12.60;75.00
16517;DHT22;8371;52.272;9.746;2022-09-12T03:37:48;12.60;75.10
16517;DHT22;8371;52.272;9.746;2022-09-12T03:40:15;12.70;75.10
16517;DHT22;8371;52.272;9.746;2022-09-12T03:42:40;12.80;75.20
16517;DHT22;8371;52.272;9.746;2022-09-12T03:45:07;12.80;75.10
16517;DHT22;8371;52.272;9.746;2022-09-12T03:47:34;12.80;75.50
16517;DHT22;8371;52.272;9.746;2022-09-12T03:50:00;12.90;75.20
16517;DHT22;8371;52.272;9.746;2022-09-12T03:52:26;12.90;75.20
16517;DHT22;8371;52.272;9.746;2022-09-12T03:54:52;13.00;75.20
16517;DHT22;8371;52.272;9.746;2022-09-12T03:57:17;13.00;75.30
16517;DHT22;8371;52.272;9.746;2022-09-12T03:59:43;13.10;75.40
16517;DHT22;8371;52.272;9.746;2022-09-12T04:02:09;13.10;75.40
16517;DHT22;8371;52.272;9.746;2022-09-12T04:04:37;13.10;75.40
16517;DHT22;8371;52.272;9.746;2022-09-12T04:07:03;13.10;75.40
16517;DHT22;8371;52.272;9.746;2022-09-12T04:09:28;13.20;75.50
16517;DHT22;8371;52.272;9.746;2022-09-12T04:11:54;13.30;75.60
16517;DHT22;8371;52.272;9.746;2022-09-12T04:14:20;13.20;75.50
16517;DHT22;8371;52.272;9.746;2022-09-12T04:16:45;13.30;75.70
16517;DHT22;8371;52.272;9.746;2022-09-12T04:19:12;13.30;75.70
16517;DHT22;8371;52.272;9.746;2022-09-12T04:21:37;13.40;75.80
16517;DHT22;8371;52.272;9.746;2022-09-12T04:24:04;13.40;75.80
16517;DHT22;8371;52.272;9.746;2022-09-12T04:26:30;13.40;75.80
16517;DHT22;8371;52.272;9.746;2022-09-12T04:28:56;13.40;75.80
16517;DHT22;8371;52.272;9.746;2022-09-12T04:31:22;13.50;76.00
16517;DHT22;8371;52.272;9.746;2022-09-12T04:33:57;13.50;76.00
16517;DHT22;8371;52.272;9.746;2022-09-12T04:36:24;13.50;76.00
16517;DHT22;8371;52.272;9.746;2022-09-12T04:38:50;13.60;76.00
16517;DHT22;8371;52.272;9.746;2022-09-12T04:41:19;13.60;76.00
16517;DHT22;8371;52.272;9.746;2022-09-12T04:43:46;13.60;76.00
16517;DHT22;8371;52.272;9.746;2022-09-12T04:46:14;13.60;76.00
16517;DHT22;8371;52.272;9.746;2022-09-12T04:48:41;13.60;76.00
16517;DHT22;8371;52.272;9.746;2022-09-12T04:51:10;13.60;76.00
16517;DHT22;8371;52.272;9.746;2022-09-12T04:53:36;13.70;76.00
16517;DHT22;8371;52.272;9.746;2022-09-12T04:56:07;13.70;76.00
16517;DHT22;8371;52.272;9.746;2022-09-12T04:58:34;13.70;76.00
16517;DHT22;8371;52.272;9.746;2022-09-12T05:01:09;13.70;76.00
16517;DHT22;8371;52.272;9.746;2022-09-12T05:03:35;13.70;76.10
16517;DHT22;8371;52.272;9.746;2022-09-12T05:06:04;13.70;76.10
16517;DHT22;8371;52.272;9.746;2022-09-12T05:08:31;13.70;76.10
16517;DHT22;8371;52.272;9.746;2022-09-12T05:11:06;13.80;76.20
16517;DHT22;8371;52.272;9.746;2022-09-12T05:13:29;13.80;76.30
16517;DHT22;8371;52.272;9.746;2022-09-12T05:15:56;13.80;77.20
16517;DHT22;8371;52.272;9.746;2022-09-12T05:18:22;13.80;76.50
16517;DHT22;8371;52.272;9.746;2022-09-12T05:20:47;13.90;76.60
16517;DHT22;8371;52.272;9.746;2022-09-12T05:23:13;13.90;76.70
16517;DHT22;8371;52.272;9.746;2022-09-12T05:25:39;13.90;76.70
16517;DHT22;8371;52.272;9.746;2022-09-12T05:28:04;13.90;76.80
16517;DHT22;8371;52.272;9.746;2022-09-12T05:30:30;14.00;77.10
16517;DHT22;8371;52.272;9.746;2022-09-12T05:32:56;14.10;77.00
16517;DHT22;8371;52.272;9.746;2022-09-12T05:35:21;14.20;77.20
16517;DHT22;8371;52.272;9.746;2022-09-12T05:37:47;14.30;77.20
16517;DHT22;8371;52.272;9.746;2022-09-12T05:40:13;14.30;77.20
16517;DHT22;8371;52.272;9.746;2022-09-12T05:42:40;14.30;77.20
16517;DHT22;8371;52.272;9.746;2022-09-12T05:45:06;14.40;77.20
16517;DHT22;8371;52.272;9.746;2022-09-12T05:47:33;14.50;77.30
16517;DHT22;8371;52.272;9.746;2022-09-12T05:49:58;14.50;77.30
16517;DHT22;8371;52.272;9.746;2022-09-12T05:52:24;14.60;77.40
16517;DHT22;8371;52.272;9.746;2022-09-12T05:54:49;14.60;77.30
16517;DHT22;8371;52.272;9.746;2022-09-12T05:57:15;14.80;77.50
16517;DHT22;8371;52.272;9.746;2022-09-12T05:59:41;14.80;77.50
16517;DHT22;8371;52.272;9.746;2022-09-12T06:02:09;14.90;77.60
16517;DHT22;8371;52.272;9.746;2022-09-12T06:04:35;15.00;77.50
16517;DHT22;8371;52.272;9.746;2022-09-12T06:07:00;15.10;77.60
16517;DHT22;8371;52.272;9.746;2022-09-12T06:09:26;15.20;77.60
16517;DHT22;8371;52.272;9.746;2022-09-12T06:11:52;15.30;77.70
16517;DHT22;8371;52.272;9.746;2022-09-12T06:14:18;15.40;77.80
16517;DHT22;8371;52.272;9.746;2022-09-12T06:16:44;15.50;77.80
16517;DHT22;8371;52.272;9.746;2022-09-12T06:19:17;15.60;77.70
16517;DHT22;8371;52.272;9.746;2022-09-12T06:21:44;15.70;77.80
16517;DHT22;8371;52.272;9.746;2022-09-12T06:24:10;15.80;77.80
16517;DHT22;8371;52.272;9.746;2022-09-12T06:26:36;15.90;77.90
16517;DHT22;8371;52.272;9.746;2022-09-12T06:29:02;16.10;78.00
16517;DHT22;8371;52.272;9.746;2022-09-12T06:31:31;16.20;78.00
16517;DHT22;8371;52.272;9.746;2022-09-12T06:34:00;16.30;78.00
16517;DHT22;8371;52.272;9.746;2022-09-12T06:36:28;16.50;78.00
16517;DHT22;8371;52.272;9.746;2022-09-12T06:39:00;16.60;77.90
16517;DHT22;8371;52.272;9.746;2022-09-12T06:41:24;16.70;78.00
16517;DHT22;8371;52.272;9.746;2022-09-12T06:43:50;16.90;77.90
16517;DHT22;8371;52.272;9.746;2022-09-12T06:46:16;17.10;77.80
16517;DHT22;8371;52.272;9.746;2022-09-12T06:48:42;17.20;77.80
16517;DHT22;8371;52.272;9.746;2022-09-12T06:51:12;17.40;77.80
16517;DHT22;8371;52.272;9.746;2022-09-12T06:53:39;17.50;77.60
16517;DHT22;8371;52.272;9.746;2022-09-12T06:56:10;17.70;77.50
16517;DHT22;8371;52.272;9.746;2022-09-12T06:58:37;17.90;77.30
16517;DHT22;8371;52.272;9.746;2022-09-12T07:01:13;18.00;77.20
16517;DHT22;8371;52.272;9.746;2022-09-12T07:03:32;18.20;77.00
16517;DHT22;8371;52.272;9.746;2022-09-12T07:06:03;18.40;76.90
16517;DHT22;8371;52.272;9.746;2022-09-12T07:08:28;18.50;76.60
16517;DHT22;8371;52.272;9.746;2022-09-12T07:10:55;18.70;76.40
16517;DHT22;8371;52.272;9.746;2022-09-12T07:13:23;18.90;76.10
16517;DHT22;8371;52.272;9.746;2022-09-12T07:15:49;19.00;76.00
16517;DHT22;8371;52.272;9.746;2022-09-12T07:18:16;19.20;75.90
16517;DHT22;8371;52.272;9.746;2022-09-12T07:20:42;19.30;75.70
16517;DHT22;8371;52.272;9.746;2022-09-12T07:23:08;19.50;75.50
16517;DHT22;8371;52.272;9.746;2022-09-12T07:25:34;19.70;75.50
16517;DHT22;8371;52.272;9.746;2022-09-12T07:27:59;19.90;75.20
16517;DHT22;8371;52.272;9.746;2022-09-12T07:30:25;20.00;74.90
16517;DHT22;8371;52.272;9.746;2022-09-12T07:32:52;20.20;74.50
16517;DHT22;8371;52.272;9.746;2022-09-12T07:35:19;20.30;74.40
16517;DHT22;8371;52.272;9.746;2022-09-12T07:37:45;20.50;74.10
16517;DHT22;8371;52.272;9.746;2022-09-12T07:40:11;20.60;73.10
16517;DHT22;8371;52.272;9.746;2022-09-12T07:42:37;20.80;73.70
16517;DHT22;8371;52.272;9.746;2022-09-12T07:45:03;20.90;73.50
16517;DHT22;8371;52.272;9.746;2022-09-12T07:47:29;21.10;73.30
16517;DHT22;8371;52.272;9.746;2022-09-12T07:49:54;21.20;72.90
16517;DHT22;8371;52.272;9.746;2022-09-12T07:52:21;21.40;72.30
16517;DHT22;8371;52.272;9.746;2022-09-12T07:54:46;21.50;71.90
16517;DHT22;8371;52.272;9.746;2022-09-12T07:57:12;21.60;72.00
16517;DHT22;8371;52.272;9.746;2022-09-12T07:59:40;21.70;71.90
16517;DHT22;8371;52.272;9.746;2022-09-12T08:02:12;21.90;71.80
16517;DHT22;8371;52.272;9.746;2022-09-12T08:04:39;22.00;71.50
16517;DHT22;8371;52.272;9.746;2022-09-12T08:07:07;22.10;71.30
16517;DHT22;8371;52.272;9.746;2022-09-12T08:09:33;22.30;71.20
16517;DHT22;8371;52.272;9.746;2022-09-12T08:11:59;22.40;71.60
16517;DHT22;8371;52.272;9.746;2022-09-12T08:14:25;22.60;70.60
16517;DHT22;8371;52.272;9.746;2022-09-12T08:16:52;22.70;70.40
16517;DHT22;8371;52.272;9.746;2022-09-12T08:19:17;22.90;70.20
16517;DHT22;8371;52.272;9.746;2022-09-12T08:21:44;23.10;69.90
16517;DHT22;8371;52.272;9.746;2022-09-12T08:24:11;23.30;69.70
16517;DHT22;8371;52.272;9.746;2022-09-12T08:26:36;23.40;69.50
16517;DHT22;8371;52.272;9.746;2022-09-12T08:29:02;23.60;69.10
16517;DHT22;8371;52.272;9.746;2022-09-12T08:31:29;23.80;68.80
16517;DHT22;8371;52.272;9.746;2022-09-12T08:33:57;24.00;68.60
16517;DHT22;8371;52.272;9.746;2022-09-12T08:36:25;24.10;68.00
16517;DHT22;8371;52.272;9.746;2022-09-12T08:38:54;24.30;67.80
16517;DHT22;8371;52.272;9.746;2022-09-12T08:41:27;24.50;67.70
16517;DHT22;8371;52.272;9.746;2022-09-12T08:43:57;24.70;67.60
16517;DHT22;8371;52.272;9.746;2022-09-12T08:49:12;25.00;66.70
16517;DHT22;8371;52.272;9.746;2022-09-12T08:51:39;25.20;66.30
16517;DHT22;8371;52.272;9.746;2022-09-12T08:54:14;25.40;66.10
16517;DHT22;8371;52.272;9.746;2022-09-12T08:56:38;25.60;66.20
16517;DHT22;8371;52.272;9.746;2022-09-12T08:59:04;25.80;65.70
16517;DHT22;8371;52.272;9.746;2022-09-12T09:01:33;25.90;65.30
16517;DHT22;8371;52.272;9.746;2022-09-12T09:04:34;26.20;64.80
16517;DHT22;8371;52.272;9.746;2022-09-12T09:10:09;26.50;64.10
16517;DHT22;8371;52.272;9.746;2022-09-12T09:15:37;26.90;63.60
16517;DHT22;8371;52.272;9.746;2022-09-12T09:18:17;27.10;63.00
16517;DHT22;8371;52.272;9.746;2022-09-12T09:20:51;27.30;62.90
16517;DHT22;8371;52.272;9.746;2022-09-12T09:23:25;27.60;62.30
16517;DHT22;8371;52.272;9.746;2022-09-12T09:28:49;28.00;61.40
16517;DHT22;8371;52.272;9.746;2022-09-12T09:31:21;28.20;60.40
16517;DHT22;8371;52.272;9.746;2022-09-12T09:33:52;28.30;60.10
16517;DHT22;8371;52.272;9.746;2022-09-12T09:39:16;28.70;59.70
16517;DHT22;8371;52.272;9.746;2022-09-12T09:44:28;29.00;59.00
16517;DHT22;8371;52.272;9.746;2022-09-12T09:46:57;29.20;58.50
16517;DHT22;8371;52.272;9.746;2022-09-12T09:49:24;29.30;58.10
16517;DHT22;8371;52.272;9.746;2022-09-12T09:51:51;29.50;57.90
16517;DHT22;8371;52.272;9.746;2022-09-12T09:54:27;29.60;57.30
16517;DHT22;8371;52.272;9.746;2022-09-12T09:56:52;29.70;57.20
16517;DHT22;8371;52.272;9.746;2022-09-12T09:59:27;29.80;56.90
16517;DHT22;8371;52.272;9.746;2022-09-12T10:04:51;30.10;56.50
16517;DHT22;8371;52.272;9.746;2022-09-12T10:07:18;30.10;56.30
16517;DHT22;8371;52.272;9.746;2022-09-12T10:12:30;30.30;55.30
16517;DHT22;8371;52.272;9.746;2022-09-12T10:14:59;30.40;55.30
16517;DHT22;8371;52.272;9.746;2022-09-12T10:17:41;30.40;54.70
16517;DHT22;8371;52.272;9.746;2022-09-12T10:22:52;30.40;54.40
16517;DHT22;8371;52.272;9.746;2022-09-12T10:25:18;30.40;54.10
16517;DHT22;8371;52.272;9.746;2022-09-12T10:27:58;30.50;53.80
16517;DHT22;8371;52.272;9.746;2022-09-12T10:30:26;30.50;53.50
16517;DHT22;8371;52.272;9.746;2022-09-12T10:33:05;30.50;53.40
16517;DHT22;8371;52.272;9.746;2022-09-12T10:35:29;30.50;53.20
16517;DHT22;8371;52.272;9.746;2022-09-12T10:38:04;30.60;52.60
16517;DHT22;8371;52.272;9.746;2022-09-12T10:40:38;30.60;52.60
16517;DHT22;8371;52.272;9.746;2022-09-12T10:43:25;30.60;52.70
16517;DHT22;8371;52.272;9.746;2022-09-12T10:48:37;30.70;52.30
16517;DHT22;8371;52.272;9.746;2022-09-12T10:51:03;30.70;51.90
16517;DHT22;8371;52.272;9.746;2022-09-12T10:53:40;30.80;51.70
16517;DHT22;8371;52.272;9.746;2022-09-12T10:56:19;30.90;51.20
16517;DHT22;8371;52.272;9.746;2022-09-12T11:01:40;31.00;51.10
16517;DHT22;8371;52.272;9.746;2022-09-12T11:15:30;31.50;50.00
16517;DHT22;8371;52.272;9.746;2022-09-12T11:35:17;32.20;48.10
16517;DHT22;8371;52.272;9.746;2022-09-12T11:37:56;32.20;48.30
16517;DHT22;8371;52.272;9.746;2022-09-12T11:40:30;32.30;48.10
16517;DHT22;8371;52.272;9.746;2022-09-12T11:42:59;32.40;48.00
16517;DHT22;8371;52.272;9.746;2022-09-12T11:45:33;32.40;47.20
16517;DHT22;8371;52.272;9.746;2022-09-12T11:48:00;32.40;47.10
16517;DHT22;8371;52.272;9.746;2022-09-12T11:50:30;32.40;46.70
16517;DHT22;8371;52.272;9.746;2022-09-12T11:53:03;32.50;46.90
16517;DHT22;8371;52.272;9.746;2022-09-12T11:55:28;32.50;47.10
16517;DHT22;8371;52.272;9.746;2022-09-12T11:57:56;32.50;47.40
16517;DHT22;8371;52.272;9.746;2022-09-12T12:00:40;32.50;46.80
16517;DHT22;8371;52.272;9.746;2022-09-12T12:06:04;32.50;46.40
16517;DHT22;8371;52.272;9.746;2022-09-12T12:08:36;32.50;46.40
16517;DHT22;8371;52.272;9.746;2022-09-12T12:11:04;32.50;46.30
16517;DHT22;8371;52.272;9.746;2022-09-12T12:13:33;32.50;46.40
16517;DHT22;8371;52.272;9.746;2022-09-12T12:16:03;32.60;46.50
16517;DHT22;8371;52.272;9.746;2022-09-12T12:18:31;32.70;46.40
16517;DHT22;8371;52.272;9.746;2022-09-12T12:21:28;32.70;46.20
16517;DHT22;8371;52.272;9.746;2022-09-12T12:39:59;33.00;45.40
16517;DHT22;8371;52.272;9.746;2022-09-12T12:53:03;33.20;44.20
16517;DHT22;8371;52.272;9.746;2022-09-12T13:03:33;33.30;43.80
16517;DHT22;8371;52.272;9.746;2022-09-12T13:06:02;33.30;43.40
16517;DHT22;8371;52.272;9.746;2022-09-12T13:08:31;33.30;43.20
16517;DHT22;8371;52.272;9.746;2022-09-12T13:11:09;33.30;42.90
16517;DHT22;8371;52.272;9.746;2022-09-12T13:13:50;33.30;42.50
16517;DHT22;8371;52.272;9.746;2022-09-12T13:16:36;33.20;42.60
16517;DHT22;8371;52.272;9.746;2022-09-12T13:19:14;33.20;42.70
16517;DHT22;8371;52.272;9.746;2022-09-12T13:24:23;33.20;42.60
16517;DHT22;8371;52.272;9.746;2022-09-12T13:26:48;33.20;42.50
16517;DHT22;8371;52.272;9.746;2022-09-12T13:29:23;33.20;42.30
16517;DHT22;8371;52.272;9.746;2022-09-12T13:32:00;33.30;42.10
16517;DHT22;8371;52.272;9.746;2022-09-12T13:34:29;33.30;41.80
16517;DHT22;8371;52.272;9.746;2022-09-12T13:37:12;33.30;41.70
16517;DHT22;8371;52.272;9.746;2022-09-12T13:39:48;33.30;41.40
16517;DHT22;8371;52.272;9.746;2022-09-12T13:42:38;33.30;41.40
16517;DHT22;8371;52.272;9.746;2022-09-12T13:47:45;33.20;41.80
16517;DHT22;8371;52.272;9.746;2022-09-12T13:50:23;33.20;42.00
16517;DHT22;8371;52.272;9.746;2022-09-12T13:52:52;33.20;41.80
16517;DHT22;8371;52.272;9.746;2022-09-12T13:55:33;33.30;41.40
16517;DHT22;8371;52.272;9.746;2022-09-12T13:58:04;33.20;41.00
16517;DHT22;8371;52.272;9.746;2022-09-12T14:00:32;33.30;41.10
16517;DHT22;8371;52.272;9.746;2022-09-12T14:03:00;33.30;40.90
16517;DHT22;8371;52.272;9.746;2022-09-12T14:05:52;33.20;40.80
16517;DHT22;8371;52.272;9.746;2022-09-12T14:08:14;33.20;40.60
16517;DHT22;8371;52.272;9.746;2022-09-12T14:10:42;33.30;40.50
16517;DHT22;8371;52.272;9.746;2022-09-12T14:13:11;33.20;40.30
16517;DHT22;8371;52.272;9.746;2022-09-12T14:15:37;33.20;40.00
16517;DHT22;8371;52.272;9.746;2022-09-12T14:18:05;33.10;40.00
16517;DHT22;8371;52.272;9.746;2022-09-12T14:20:36;33.00;39.60
16517;DHT22;8371;52.272;9.746;2022-09-12T14:25:44;32.80;39.60
16517;DHT22;8371;52.272;9.746;2022-09-12T14:28:13;32.70;39.80
16517;DHT22;8371;52.272;9.746;2022-09-12T14:31:00;32.60;40.00
16517;DHT22;8371;52.272;9.746;2022-09-12T14:33:28;32.50;39.80
16517;DHT22;8371;52.272;9.746;2022-09-12T14:36:11;32.50;40.00
16517;DHT22;8371;52.272;9.746;2022-09-12T14:38:42;32.50;40.10
16517;DHT22;8371;52.272;9.746;2022-09-12T14:41:11;32.50;40.10
16517;DHT22;8371;52.272;9.746;2022-09-12T14:43:41;32.50;40.00
16517;DHT22;8371;52.272;9.746;2022-09-12T14:46:16;32.50;39.80
16517;DHT22;8371;52.272;9.746;2022-09-12T14:48:52;32.60;39.70
16517;DHT22;8371;52.272;9.746;2022-09-12T14:51:26;32.60;39.50
16517;DHT22;8371;52.272;9.746;2022-09-12T14:53:52;32.60;39.40
16517;DHT22;8371;52.272;9.746;2022-09-12T14:56:35;32.50;39.10
16517;DHT22;8371;52.272;9.746;2022-09-12T14:58:51;32.50;38.80
16517;DHT22;8371;52.272;9.746;2022-09-12T15:03:49;32.50;39.00
16517;DHT22;8371;52.272;9.746;2022-09-12T15:08:46;32.50;38.90
16517;DHT22;8371;52.272;9.746;2022-09-12T15:11:12;32.50;38.80
16517;DHT22;8371;52.272;9.746;2022-09-12T15:13:40;32.50;38.70
16517;DHT22;8371;52.272;9.746;2022-09-12T15:16:08;32.50;38.80
16517;DHT22;8371;52.272;9.746;2022-09-12T15:18:35;32.50;38.30
16517;DHT22;8371;52.272;9.746;2022-09-12T15:21:02;32.50;38.30
16517;DHT22;8371;52.272;9.746;2022-09-12T15:23:40;32.40;38.20
16517;DHT22;8371;52.272;9.746;2022-09-12T15:26:10;32.30;38.40
16517;DHT22;8371;52.272;9.746;2022-09-12T15:28:36;32.20;38.30
16517;DHT22;8371;52.272;9.746;2022-09-12T15:31:11;32.20;38.20
16517;DHT22;8371;52.272;9.746;2022-09-12T15:33:34;32.20;38.20
16517;DHT22;8371;52.272;9.746;2022-09-12T15:36:00;32.10;38.00
16517;DHT22;8371;52.272;9.746;2022-09-12T15:38:26;32.00;38.00
16517;DHT22;8371;52.272;9.746;2022-09-12T15:40:52;31.90;38.00
16517;DHT22;8371;52.272;9.746;2022-09-12T15:43:20;31.80;37.70
16517;DHT22;8371;52.272;9.746;2022-09-12T15:45:48;31.60;37.80
16517;DHT22;8371;52.272;9.746;2022-09-12T15:48:16;31.50;38.10
16517;DHT22;8371;52.272;9.746;2022-09-12T15:50:42;31.40;38.30
16517;DHT22;8371;52.272;9.746;2022-09-12T15:53:12;31.30;38.30
16517;DHT22;8371;52.272;9.746;2022-09-12T15:55:37;31.20;38.30
16517;DHT22;8371;52.272;9.746;2022-09-12T15:58:03;31.10;38.40
16517;DHT22;8371;52.272;9.746;2022-09-12T16:00:28;31.00;38.30
16517;DHT22;8371;52.272;9.746;2022-09-12T16:02:54;30.90;38.60
16517;DHT22;8371;52.272;9.746;2022-09-12T16:05:22;30.80;38.40
16517;DHT22;8371;52.272;9.746;2022-09-12T16:07:51;30.70;38.50
16517;DHT22;8371;52.272;9.746;2022-09-12T16:10:22;30.60;38.70
16517;DHT22;8371;52.272;9.746;2022-09-12T16:12:47;30.50;38.70
16517;DHT22;8371;52.272;9.746;2022-09-12T16:15:17;30.40;38.80
16517;DHT22;8371;52.272;9.746;2022-09-12T16:17:42;30.30;38.80
16517;DHT22;8371;52.272;9.746;2022-09-12T16:20:09;30.20;38.90
16517;DHT22;8371;52.272;9.746;2022-09-12T16:22:34;30.10;38.80
16517;DHT22;8371;52.272;9.746;2022-09-12T16:25:00;30.00;38.90
16517;DHT22;8371;52.272;9.746;2022-09-12T16:27:26;29.90;39.10
16517;DHT22;8371;52.272;9.746;2022-09-12T16:29:51;29.80;39.20
16517;DHT22;8371;52.272;9.746;2022-09-12T16:32:17;29.70;39.10
16517;DHT22;8371;52.272;9.746;2022-09-12T16:34:43;29.60;39.00
16517;DHT22;8371;52.272;9.746;2022-09-12T16:37:09;29.60;39.30
16517;DHT22;8371;52.272;9.746;2022-09-12T16:39:35;29.50;39.10
16517;DHT22;8371;52.272;9.746;2022-09-12T16:42:00;29.30;39.10
16517;DHT22;8371;52.272;9.746;2022-09-12T16:44:26;29.20;39.20
16517;DHT22;8371;52.272;9.746;2022-09-12T16:46:52;29.10;39.20
16517;DHT22;8371;52.272;9.746;2022-09-12T16:49:18;29.00;39.20
16517;DHT22;8371;52.272;9.746;2022-09-12T16:51:44;28.80;39.20
16517;DHT22;8371;52.272;9.746;2022-09-12T16:54:15;28.70;39.30
16517;DHT22;8371;52.272;9.746;2022-09-12T16:56:42;28.60;39.40
16517;DHT22;8371;52.272;9.746;2022-09-12T16:59:09;28.50;39.60
16517;DHT22;8371;52.272;9.746;2022-09-12T17:01:37;28.30;39.60
16517;DHT22;8371;52.272;9.746;2022-09-12T17:04:02;28.20;39.70
16517;DHT22;8371;52.272;9.746;2022-09-12T17:06:28;28.00;39.70
16517;DHT22;8371;52.272;9.746;2022-09-12T17:08:57;27.90;39.90
16517;DHT22;8371;52.272;9.746;2022-09-12T17:11:27;27.70;40.00
16517;DHT22;8371;52.272;9.746;2022-09-12T17:13:56;27.60;40.00
16517;DHT22;8371;52.272;9.746;2022-09-12T17:16:22;27.40;40.10
16517;DHT22;8371;52.272;9.746;2022-09-12T17:18:50;27.20;40.20
16517;DHT22;8371;52.272;9.746;2022-09-12T17:21:16;27.10;40.50
16517;DHT22;8371;52.272;9.746;2022-09-12T17:23:42;26.90;40.60
16517;DHT22;8371;52.272;9.746;2022-09-12T17:26:09;26.70;41.20
16517;DHT22;8371;52.272;9.746;2022-09-12T17:28:36;26.60;40.70
16517;DHT22;8371;52.272;9.746;2022-09-12T17:31:04;26.40;40.80
16517;DHT22;8371;52.272;9.746;2022-09-12T17:33:31;26.20;40.90
16517;DHT22;8371;52.272;9.746;2022-09-12T17:36:02;26.10;41.00
16517;DHT22;8371;52.272;9.746;2022-09-12T17:38:30;26.00;41.20
16517;DHT22;8371;52.272;9.746;2022-09-12T17:41:05;25.80;41.20
16517;DHT22;8371;52.272;9.746;2022-09-12T17:43:31;25.60;41.40
16517;DHT22;8371;52.272;9.746;2022-09-12T17:45:57;25.50;41.50
16517;DHT22;8371;52.272;9.746;2022-09-12T17:48:23;25.30;41.60
16517;DHT22;8371;52.272;9.746;2022-09-12T17:50:49;25.10;41.90
16517;DHT22;8371;52.272;9.746;2022-09-12T17:53:15;25.00;42.00
16517;DHT22;8371;52.272;9.746;2022-09-12T17:55:42;24.80;42.10
16517;DHT22;8371;52.272;9.746;2022-09-12T17:58:08;24.60;42.20
16517;DHT22;8371;52.272;9.746;2022-09-12T18:00:34;24.50;42.60
16517;DHT22;8371;52.272;9.746;2022-09-12T18:03:22;24.30;42.70
16517;DHT22;8371;52.272;9.746;2022-09-12T18:05:54;24.10;42.80
16517;DHT22;8371;52.272;9.746;2022-09-12T18:08:22;24.00;43.00
16517;DHT22;8371;52.272;9.746;2022-09-12T18:10:49;23.80;43.30
16517;DHT22;8371;52.272;9.746;2022-09-12T18:13:15;23.60;43.30
16517;DHT22;8371;52.272;9.746;2022-09-12T18:15:41;23.50;43.50